Time;durP1;ratioP1;P1;durP2;ratioP2;P2;SDS_P1;SDS_P2;PMS_P1;PMS_P2;Temp;Humidity;BMP_temperature;BMP_pressure;BME280_temperature;BME280_humidity;BME280_pressure;Samples;Min_cycle;Max_cycle;Signal;HPM_P1;HPM_P2
2022/05/24 04:43:06;;;;;;;4.82;2.25;;;;;;;;;;4950499;23;20056;-62
2022/05/24 04:48:29;;;;;;;5.85;2.35;;;;;;;;;;4859507;29;20049;-57
2022/05/24 04:50:56;;;;;;;5.95;2.13;;;;;;;;;;4861836;29;20053;-59
2022/05/24 04:53:23;;;;;;;11.18;2.13;;;;;;;;;;4844909;29;20038;-63
2022/05/24 04:55:49;;;;;;;8.75;1.95;;;;;;;;;;4861561;29;20033;-59
2022/05/24 04:58:16;;;;;;;3.65;1.90;;;;;;;;;;4852905;29;20030;-60
2022/05/24 05:00:42;;;;;;;5.20;2.30;;;;;;;;;;4850991;29;20057;-59
2022/05/24 05:03:12;;;;;;;3.92;2.15;;;;;;;;;;4852198;29;20028;-60
2022/05/24 05:05:38;;;;;;;6.65;2.10;;;;;;;;;;4851357;29;20069;-60
2022/05/24 05:08:05;;;;;;;11.50;2.15;;;;;;;;;;4850493;29;20054;-61
2022/05/24 05:10:33;;;;;;;8.23;2.15;;;;;;;;;;4855701;29;20097;-60
2022/05/24 05:12:59;;;;;;;5.38;2.10;;;;;;;;;;4861881;29;20453;-60
2022/05/24 05:15:25;;;;;;;5.95;2.08;;;;;;;;;;4861619;29;20540;-60
2022/05/24 05:17:52;;;;;;;8.18;2.33;;;;;;;;;;4861490;29;20084;-61
2022/05/24 05:20:18;;;;;;;7.68;2.38;;;;;;;;;;4861724;29;20087;-60
2022/05/24 05:22:44;;;;;;;8.98;2.05;;;;;;;;;;4861196;29;20022;-62
2022/05/24 05:25:10;;;;;;;4.72;2.10;;;;;;;;;;4861469;29;20417;-60
2022/05/24 05:27:36;;;;;;;3.95;1.70;;;;;;;;;;4861189;29;20033;-62
2022/05/24 05:32:50;;;;;;;4.68;1.90;;;;;;;;;;4861568;29;20501;-60
2022/05/24 05:35:16;;;;;;;6.63;1.90;;;;;;;;;;4861322;29;20374;-60
2022/05/24 05:37:42;;;;;;;7.32;2.08;;;;;;;;;;4860902;29;20112;-60
2022/05/24 05:40:09;;;;;;;5.10;2.40;;;;;;;;;;4861253;29;20033;-61
2022/05/24 05:42:35;;;;;;;5.88;2.10;;;;;;;;;;4860933;29;20030;-61
2022/05/24 05:45:01;;;;;;;5.55;1.90;;;;;;;;;;4861210;29;20178;-60
2022/05/24 05:47:27;;;;;;;5.15;1.90;;;;;;;;;;4872045;29;20453;-60
2022/05/24 05:49:54;;;;;;;4.93;2.00;;;;;;;;;;4879315;29;20029;-60
2022/05/24 05:52:20;;;;;;;4.13;2.13;;;;;;;;;;4862450;29;20040;-60
2022/05/24 05:54:46;;;;;;;7.05;2.08;;;;;;;;;;4879261;29;20119;-60
2022/05/24 05:57:12;;;;;;;5.30;2.30;;;;;;;;;;4877863;29;20025;-59
2022/05/24 05:59:38;;;;;;;4.40;2.00;;;;;;;;;;4879236;29;20033;-60
2022/05/24 06:02:05;;;;;;;5.75;2.03;;;;;;;;;;4878506;29;20157;-58
2022/05/24 06:04:31;;;;;;;6.18;2.10;;;;;;;;;;4879204;29;20029;-59
2022/05/24 06:06:58;;;;;;;4.43;1.58;;;;;;;;;;4879161;29;20109;-61
2022/05/24 06:09:24;;;;;;;6.18;2.00;;;;;;;;;;4878672;29;20410;-58
2022/05/24 06:11:50;;;;;;;4.40;1.88;;;;;;;;;;4879135;29;20467;-61
2022/05/24 06:14:16;;;;;;;5.72;1.90;;;;;;;;;;4878882;29;20397;-59
2022/05/24 06:16:42;;;;;;;5.97;1.95;;;;;;;;;;4878750;29;20035;-60
2022/05/24 06:19:09;;;;;;;5.32;2.10;;;;;;;;;;4878890;29;20101;-58
2022/05/24 06:21:35;;;;;;;6.32;2.13;;;;;;;;;;4878254;29;20032;-60
2022/05/24 06:24:03;;;;;;;5.80;1.98;;;;;;;;;;4878422;29;20464;-60
2022/05/24 06:26:29;;;;;;;6.97;2.30;;;;;;;;;;4861880;29;20464;-60
2022/05/24 06:28:56;;;;;;;3.83;2.10;;;;;;;;;;4878318;29;20138;-61
2022/05/24 06:31:22;;;;;;;5.00;2.35;;;;;;;;;;4878735;29;20032;-60
2022/05/24 06:33:48;;;;;;;7.00;2.15;;;;;;;;;;4878538;29;20434;-60
2022/05/24 06:36:14;;;;;;;6.40;2.10;;;;;;;;;;4878164;29;20466;-60
2022/05/24 06:38:40;;;;;;;8.43;2.03;;;;;;;;;;4878551;29;20032;-60
2022/05/24 06:41:07;;;;;;;7.05;2.10;;;;;;;;;;4878564;29;20386;-60
2022/05/24 06:43:34;;;;;;;5.95;1.80;;;;;;;;;;4878585;29;20489;-60
2022/05/24 06:46:00;;;;;;;4.60;2.03;;;;;;;;;;4878359;29;20039;-60
2022/05/24 06:48:26;;;;;;;6.60;2.55;;;;;;;;;;4877909;29;20068;-61
2022/05/24 06:50:52;;;;;;;6.72;2.20;;;;;;;;;;4878196;29;20104;-61
2022/05/24 06:53:18;;;;;;;6.72;3.20;;;;;;;;;;4878480;29;20052;-61
2022/05/24 06:55:44;;;;;;;10.18;2.50;;;;;;;;;;4878307;29;20108;-59
2022/05/24 06:58:10;;;;;;;4.75;2.50;;;;;;;;;;4878463;29;20040;-62
2022/05/24 07:03:21;;;;;;;7.32;2.85;;;;;;;;;;4878691;29;20104;-62
2022/05/24 07:05:47;;;;;;;10.40;3.00;;;;;;;;;;4877850;29;20452;-59
2022/05/24 07:08:13;;;;;;;6.05;2.53;;;;;;;;;;4877691;29;20405;-61
2022/05/24 07:10:40;;;;;;;6.80;2.90;;;;;;;;;;4870108;29;20036;-59
2022/05/24 07:13:08;;;;;;;7.82;3.08;;;;;;;;;;4859075;29;20045;-59
2022/05/24 07:15:34;;;;;;;7.53;3.10;;;;;;;;;;4859403;29;20029;-61
2022/05/24 07:18:01;;;;;;;10.13;2.90;;;;;;;;;;4859087;29;20041;-59
2022/05/24 07:20:28;;;;;;;6.57;2.60;;;;;;;;;;4859004;29;20072;-59
2022/05/24 07:22:55;;;;;;;7.60;2.63;;;;;;;;;;4859304;29;20865;-59
2022/05/24 07:25:22;;;;;;;10.15;3.00;;;;;;;;;;4858380;29;20462;-60
2022/05/24 07:27:48;;;;;;;5.85;2.60;;;;;;;;;;4858501;29;20125;-60
2022/05/24 07:30:15;;;;;;;5.05;2.83;;;;;;;;;;4858726;29;20060;-60
2022/05/24 07:32:42;;;;;;;9.38;2.40;;;;;;;;;;4858275;29;20038;-61
2022/05/24 07:35:09;;;;;;;6.75;2.70;;;;;;;;;;4858254;29;20033;-60
2022/05/24 07:37:35;;;;;;;7.65;2.30;;;;;;;;;;4857986;29;20030;-60
2022/05/24 07:45:48;;;;;;;8.50;3.03;;;;;;;;;;4858118;29;20081;-60
2022/05/24 07:48:15;;;;;;;5.97;2.28;;;;;;;;;;4858596;29;20109;-61
2022/05/24 07:50:41;;;;;;;7.75;2.58;;;;;;;;;;4858667;29;20045;-61
2022/05/24 07:53:08;;;;;;;9.23;2.85;;;;;;;;;;4858209;29;20037;-60
2022/05/24 07:55:34;;;;;;;6.57;2.38;;;;;;;;;;4858641;29;20364;-61
2022/05/24 07:58:00;;;;;;;6.35;2.78;;;;;;;;;;4858817;29;20030;-61
2022/05/24 08:00:26;;;;;;;6.50;2.50;;;;;;;;;;4858370;29;20112;-60
2022/05/24 08:02:53;;;;;;;5.78;2.67;;;;;;;;;;4858792;29;20038;-61
2022/05/24 08:05:20;;;;;;;7.82;3.00;;;;;;;;;;4858572;29;20156;-60
2022/05/24 08:07:46;;;;;;;7.65;2.85;;;;;;;;;;4858348;29;20069;-63
2022/05/24 08:10:13;;;;;;;8.57;3.35;;;;;;;;;;4858542;29;20033;-61
2022/05/24 08:12:39;;;;;;;8.55;3.10;;;;;;;;;;4858677;29;20034;-60
2022/05/24 08:15:06;;;;;;;7.38;3.03;;;;;;;;;;4858731;29;20039;-60
2022/05/24 08:17:34;;;;;;;7.28;3.17;;;;;;;;;;4858660;29;20041;-60
2022/05/24 08:20:00;;;;;;;10.57;2.90;;;;;;;;;;4857896;29;20120;-60
2022/05/24 08:22:26;;;;;;;8.52;3.28;;;;;;;;;;4858028;29;20033;-60
2022/05/24 08:24:52;;;;;;;8.75;3.13;;;;;;;;;;4858327;29;20061;-60
2022/05/24 08:27:18;;;;;;;6.07;2.88;;;;;;;;;;4858442;29;20052;-62
2022/05/24 08:29:44;;;;;;;13.70;3.67;;;;;;;;;;4858196;29;20042;-64
2022/05/24 08:32:11;;;;;;;10.98;3.72;;;;;;;;;;4858000;29;20367;-62
2022/05/24 08:34:38;;;;;;;13.98;3.45;;;;;;;;;;4858296;29;20463;-60
2022/05/24 08:37:05;;;;;;;7.45;2.88;;;;;;;;;;4858070;29;20034;-60
2022/05/24 08:39:31;;;;;;;9.70;3.33;;;;;;;;;;4866020;29;20501;-61
2022/05/24 08:42:04;;;;;;;6.28;3.38;;;;;;;;;;4858976;29;20033;-62
2022/05/24 08:50:02;;;;;;;8.43;2.72;;;;;;;;;;4876095;29;20132;-62
2022/05/24 08:52:41;;;;;;;6.22;3.05;;;;;;;;;;4876601;29;20029;-64
2022/05/24 08:55:10;;;;;;;10.57;3.50;;;;;;;;;;4862683;29;20049;-62
2022/05/24 08:57:50;;;;;;;10.88;3.75;;;;;;;;;;4857726;29;20033;-63
2022/05/24 09:00:21;;;;;;;10.43;3.63;;;;;;;;;;4863337;29;20057;-63
2022/05/24 09:02:48;;;;;;;12.93;3.63;;;;;;;;;;4858245;29;20042;-64
2022/05/24 09:05:18;;;;;;;4.95;3.40;;;;;;;;;;4864218;29;20028;-63
2022/05/24 09:07:53;;;;;;;6.32;3.20;;;;;;;;;;4874057;29;20119;-63
2022/05/24 09:10:22;;;;;;;10.02;3.30;;;;;;;;;;4876628;29;20037;-63
2022/05/24 09:13:02;;;;;;;7.78;3.08;;;;;;;;;;4876397;29;20058;-62
2022/05/24 09:15:34;;;;;;;9.07;3.28;;;;;;;;;;4876435;29;20485;-63
2022/05/24 09:18:14;;;;;;;5.97;3.15;;;;;;;;;;4876346;29;20037;-63
2022/05/24 09:20:42;;;;;;;6.57;3.35;;;;;;;;;;4859563;29;20133;-63
2022/05/24 09:23:09;;;;;;;6.85;3.30;;;;;;;;;;4876887;29;20036;-63
2022/05/24 09:25:35;;;;;;;7.90;3.67;;;;;;;;;;4875947;29;20031;-63
2022/05/24 09:28:01;;;;;;;9.60;3.58;;;;;;;;;;4876152;29;20064;-63
2022/05/24 09:30:36;;;;;;;6.20;3.50;;;;;;;;;;4874451;29;20089;-62
2022/05/24 09:33:24;;;;;;;7.05;3.40;;;;;;;;;;4867745;29;20144;-61
2022/05/24 09:35:54;;;;;;;6.47;3.13;;;;;;;;;;4871508;29;20397;-66
2022/05/24 09:38:22;;;;;;;9.93;3.88;;;;;;;;;;4873460;29;20017;-62
2022/05/24 09:40:51;;;;;;;8.77;3.60;;;;;;;;;;4879745;29;20041;-62
2022/05/24 09:43:29;;;;;;;6.75;3.20;;;;;;;;;;4879581;29;20033;-64
2022/05/24 09:46:07;;;;;;;5.80;3.60;;;;;;;;;;4873484;29;20061;-61
2022/05/24 09:48:35;;;;;;;10.05;3.97;;;;;;;;;;4860872;29;20124;-62
2022/05/24 09:51:03;;;;;;;7.82;3.42;;;;;;;;;;4860903;29;20057;-68
2022/05/24 09:53:30;;;;;;;9.30;3.70;;;;;;;;;;4860832;29;20093;-62
2022/05/24 09:56:01;;;;;;;12.70;3.67;;;;;;;;;;4860451;29;20439;-63
2022/05/24 09:58:27;;;;;;;7.80;3.60;;;;;;;;;;4860699;29;20526;-67
2022/05/24 10:01:13;;;;;;;10.73;3.55;;;;;;;;;;4860786;29;20718;-63
2022/05/24 10:03:43;;;;;;;8.13;3.53;;;;;;;;;;4860459;29;20053;-60
2022/05/24 10:06:20;;;;;;;8.15;3.50;;;;;;;;;;4860205;29;20352;-61
2022/05/24 10:08:51;;;;;;;5.68;3.78;;;;;;;;;;4860400;29;20363;-61
2022/05/24 10:11:36;;;;;;;5.90;3.80;;;;;;;;;;4860478;29;20036;-61
2022/05/24 10:14:17;;;;;;;8.98;4.22;;;;;;;;;;4860214;29;20054;-60
2022/05/24 10:16:49;;;;;;;8.33;3.90;;;;;;;;;;4860155;29;20354;-64
2022/05/24 10:19:34;;;;;;;8.23;4.22;;;;;;;;;;4860210;29;20112;-59
2022/05/24 10:22:08;;;;;;;10.23;4.05;;;;;;;;;;4860097;29;20072;-64
2022/05/24 10:24:46;;;;;;;10.35;3.88;;;;;;;;;;4860333;29;20037;-67
2022/05/24 10:27:26;;;;;;;11.30;4.30;;;;;;;;;;4859731;29;20040;-62
2022/05/24 10:30:05;;;;;;;8.05;4.10;;;;;;;;;;4859572;29;20041;-60
2022/05/24 10:39:11;;;;;;;5.78;4.07;;;;;;;;;;4784738;30;20126;-60
2022/05/24 10:41:51;;;;;;;5.45;4.10;;;;;;;;;;4784135;30;20039;-61
2022/05/24 10:44:17;;;;;;;8.57;4.43;;;;;;;;;;4783546;30;20038;-66
2022/05/24 10:47:06;;;;;;;10.48;4.75;;;;;;;;;;4784030;29;20542;-60
2022/05/24 10:50:05;;;;;;;8.35;4.57;;;;;;;;;;4731075;30;20122;-61
2022/05/24 10:52:49;;;;;;;11.60;4.43;;;;;;;;;;4696511;30;20045;-61
2022/05/24 10:55:27;;;;;;;16.95;5.22;;;;;;;;;;4696093;30;20644;-60
2022/05/24 10:57:53;;;;;;;11.02;5.40;;;;;;;;;;4696278;30;20034;-61
2022/05/24 11:00:25;;;;;;;6.40;4.65;;;;;;;;;;4695793;30;20530;-61
2022/05/24 11:03:00;;;;;;;8.75;4.80;;;;;;;;;;4696118;30;20214;-63
2022/05/24 11:05:28;;;;;;;11.52;5.55;;;;;;;;;;4696318;30;20037;-62
2022/05/24 11:08:02;;;;;;;10.02;5.00;;;;;;;;;;4766381;30;20378;-64
2022/05/24 11:10:31;;;;;;;8.95;4.78;;;;;;;;;;4766206;30;20417;-62
2022/05/24 11:12:58;;;;;;;11.52;4.68;;;;;;;;;;4766469;30;20050;-63
2022/05/24 11:15:33;;;;;;;9.38;4.85;;;;;;;;;;4766376;30;20071;-63
2022/05/24 11:18:03;;;;;;;7.85;4.97;;;;;;;;;;4765801;30;20190;-62
2022/05/24 11:20:33;;;;;;;9.40;4.90;;;;;;;;;;4766316;30;20044;-63
2022/05/24 11:23:02;;;;;;;7.88;5.35;;;;;;;;;;4765844;30;20197;-61
2022/05/24 11:25:31;;;;;;;8.27;5.60;;;;;;;;;;4773094;29;20031;-60
2022/05/24 11:27:57;;;;;;;13.07;5.63;;;;;;;;;;4841484;29;20116;-62
2022/05/24 11:30:26;;;;;;;11.43;5.43;;;;;;;;;;4867230;29;20466;-61
2022/05/24 11:33:09;;;;;;;11.20;6.22;;;;;;;;;;4867742;29;20131;-61
2022/05/24 11:35:40;;;;;;;7.38;5.60;;;;;;;;;;4867770;29;20093;-61
2022/05/24 11:38:10;;;;;;;13.23;5.57;;;;;;;;;;4866414;29;20033;-63
2022/05/24 11:40:40;;;;;;;10.75;6.10;;;;;;;;;;4865908;29;20473;-61
2022/05/24 11:43:06;;;;;;;9.10;5.93;;;;;;;;;;4866612;29;20025;-61
2022/05/24 11:45:32;;;;;;;8.98;5.63;;;;;;;;;;4849724;29;20088;-65
2022/05/24 11:48:08;;;;;;;9.32;6.00;;;;;;;;;;4867383;29;20545;-65
2022/05/24 11:50:37;;;;;;;9.27;5.90;;;;;;;;;;4867291;29;20160;-62
2022/05/24 11:53:03;;;;;;;10.48;6.03;;;;;;;;;;4865532;29;20033;-63
2022/05/24 11:55:46;;;;;;;13.73;5.80;;;;;;;;;;4866897;29;20489;-63
2022/05/24 11:58:22;;;;;;;11.93;5.82;;;;;;;;;;4869121;29;20544;-64
2022/05/24 12:00:58;;;;;;;9.90;5.95;;;;;;;;;;4863766;29;20443;-61
2022/05/24 12:09:08;;;;;;;9.25;5.78;;;;;;;;;;4867227;29;20574;-66
2022/05/24 12:11:36;;;;;;;13.45;6.07;;;;;;;;;;4869094;29;20084;-65
2022/05/24 12:14:17;;;;;;;8.20;5.85;;;;;;;;;;4867357;29;20056;-61
2022/05/24 12:16:46;;;;;;;10.63;6.55;;;;;;;;;;4870984;29;20045;-61
2022/05/24 12:19:31;;;;;;;9.98;5.90;;;;;;;;;;4868662;29;20041;-61
2022/05/24 12:21:57;;;;;;;9.82;6.10;;;;;;;;;;4868764;29;20044;-65
2022/05/24 12:24:29;;;;;;;10.90;6.55;;;;;;;;;;4867290;29;20565;-61
2022/05/24 12:27:07;;;;;;;14.20;6.05;;;;;;;;;;4865057;29;20025;-62
2022/05/24 12:29:34;;;;;;;9.57;5.95;;;;;;;;;;4866530;29;20084;-65
2022/05/24 12:32:06;;;;;;;10.82;5.72;;;;;;;;;;4867555;29;20025;-61
2022/05/24 12:34:32;;;;;;;9.60;5.60;;;;;;;;;;4867550;29;20517;-61
2022/05/24 12:37:01;;;;;;;13.25;5.78;;;;;;;;;;4867309;29;20028;-62
2022/05/24 12:39:27;;;;;;;13.98;6.18;;;;;;;;;;4870478;29;20037;-62
2022/05/24 12:41:58;;;;;;;10.10;5.75;;;;;;;;;;4869228;29;20382;-62
2022/05/24 12:44:30;;;;;;;9.73;6.22;;;;;;;;;;4866061;29;20017;-64
2022/05/24 12:46:56;;;;;;;;;;;;;;;;;;4865871;29;20045;-61
2022/05/24 12:49:30;;;;;;;11.90;6.47;;;;;;;;;;4866105;29;19995;-61
2022/05/24 12:52:14;;;;;;;14.75;6.60;;;;;;;;;;4870730;29;20116;-62
2022/05/24 12:54:45;;;;;;;9.50;4.65;;;;;;;;;;4850207;29;20378;-62
2022/05/24 12:57:16;;;;;;;8.55;4.63;;;;;;;;;;4865638;29;20101;-61
2022/05/24 12:59:43;;;;;;;8.27;4.45;;;;;;;;;;4865047;29;20038;-61
2022/05/24 13:02:18;;;;;;;8.95;4.45;;;;;;;;;;4866144;29;20021;-62
2022/05/24 13:04:45;;;;;;;10.50;5.03;;;;;;;;;;4865072;29;20025;-61
2022/05/24 13:07:34;;;;;;;10.20;5.30;;;;;;;;;;4867405;29;20029;-61
2022/05/24 13:10:00;;;;;;;10.23;6.25;;;;;;;;;;4873716;29;20037;-61
2022/05/24 13:12:27;;;;;;;8.70;5.05;;;;;;;;;;4870539;29;20086;-60
2022/05/24 13:14:57;;;;;;;12.13;5.95;;;;;;;;;;4869443;29;20049;-61
2022/05/24 13:17:24;;;;;;;12.90;5.53;;;;;;;;;;4870485;29;20047;-61
2022/05/24 13:19:56;;;;;;;9.90;4.63;;;;;;;;;;4870769;29;20039;-61
2022/05/24 13:22:24;;;;;;;9.55;4.60;;;;;;;;;;4869075;29;20507;-61
2022/05/24 13:24:51;;;;;;;10.23;4.70;;;;;;;;;;4868170;29;20045;-61
2022/05/24 13:27:17;;;;;;;10.27;4.97;;;;;;;;;;4868656;29;20541;-61
2022/05/24 13:35:16;;;;;;;12.60;4.60;;;;;;;;;;4878572;29;20048;-62
2022/05/24 13:37:51;;;;;;;10.55;4.40;;;;;;;;;;4861407;29;20490;-61
2022/05/24 13:40:17;;;;;;;8.13;4.47;;;;;;;;;;4861287;29;20026;-63
2022/05/24 13:42:57;;;;;;;8.85;4.28;;;;;;;;;;4860988;29;20055;-65
2022/05/24 13:45:26;;;;;;;12.00;5.00;;;;;;;;;;4867202;29;20048;-62
2022/05/24 13:47:54;;;;;;;12.18;4.88;;;;;;;;;;4860711;29;20426;-60
2022/05/24 13:50:20;;;;;;;9.05;4.55;;;;;;;;;;4873098;29;20029;-61
2022/05/24 13:52:49;;;;;;;13.00;4.50;;;;;;;;;;4879327;29;20025;-62
2022/05/24 13:55:15;;;;;;;9.77;4.30;;;;;;;;;;4879266;29;20068;-61
2022/05/24 13:57:44;;;;;;;8.27;4.30;;;;;;;;;;4879636;29;20021;-67
2022/05/24 14:00:33;;;;;;;6.63;4.15;;;;;;;;;;4869627;29;20029;-63
2022/05/24 14:03:08;;;;;;;9.40;4.35;;;;;;;;;;4858112;29;20059;-60
2022/05/24 14:05:35;;;;;;;8.63;4.63;;;;;;;;;;4868231;29;20033;-60
2022/05/24 14:08:01;;;;;;;9.52;5.28;;;;;;;;;;4851612;29;20367;-59
2022/05/24 14:10:31;;;;;;;9.43;4.78;;;;;;;;;;4864701;29;20033;-60
2022/05/24 14:12:57;;;;;;;8.77;4.72;;;;;;;;;;4867823;29;20069;-60
2022/05/24 14:15:24;;;;;;;10.73;4.22;;;;;;;;;;4868126;29;20033;-60
2022/05/24 14:17:50;;;;;;;12.63;4.75;;;;;;;;;;4868089;29;20037;-61
2022/05/24 14:20:17;;;;;;;10.85;4.32;;;;;;;;;;4867586;29;20128;-63
2022/05/24 14:22:43;;;;;;;8.60;4.22;;;;;;;;;;4874460;29;20040;-59
2022/05/24 14:25:09;;;;;;;11.73;4.90;;;;;;;;;;4870590;29;20026;-59
2022/05/24 14:27:37;;;;;;;12.68;4.80;;;;;;;;;;4869737;29;20056;-59
2022/05/24 14:30:08;;;;;;;11.43;5.15;;;;;;;;;;4876796;29;20025;-61
2022/05/24 14:32:35;;;;;;;11.23;4.75;;;;;;;;;;4878785;29;20029;-61
2022/05/24 14:35:02;;;;;;;8.98;4.80;;;;;;;;;;4872005;29;20037;-61
2022/05/24 14:37:28;;;;;;;10.52;4.97;;;;;;;;;;4866949;29;20029;-60
2022/05/24 14:39:54;;;;;;;15.63;5.18;;;;;;;;;;4868815;29;20036;-59
2022/05/24 14:42:21;;;;;;;18.30;5.10;;;;;;;;;;4868222;29;20032;-60
2022/05/24 14:44:47;;;;;;;14.30;5.28;;;;;;;;;;4866345;29;20120;-59
2022/05/24 14:47:14;;;;;;;10.43;5.18;;;;;;;;;;4868296;29;20045;-60
2022/05/24 14:49:40;;;;;;;8.15;4.13;;;;;;;;;;4868130;29;20041;-60
2022/05/24 14:52:10;;;;;;;9.27;5.00;;;;;;;;;;4867277;29;20040;-60
2022/05/24 14:54:39;;;;;;;10.32;4.43;;;;;;;;;;4867622;29;20086;-59
2022/05/24 14:57:05;;;;;;;9.60;4.72;;;;;;;;;;4867335;29;20032;-60
2022/05/24 14:59:31;;;;;;;10.43;4.65;;;;;;;;;;4868671;29;20021;-60
2022/05/24 15:01:57;;;;;;;8.93;4.50;;;;;;;;;;4867531;29;20101;-59
2022/05/24 15:04:23;;;;;;;12.48;4.90;;;;;;;;;;4867069;29;20104;-60
2022/05/24 15:06:50;;;;;;;10.52;4.72;;;;;;;;;;4868426;29;20034;-59
2022/05/24 15:17:35;;;;;;;9.13;5.78;;;;;;;;;;4861514;29;20057;-59
2022/05/24 15:20:03;;;;;;;11.65;6.38;;;;;;;;;;4859125;29;20314;-59
2022/05/24 15:22:29;;;;;;;8.90;5.55;;;;;;;;;;4858994;29;20029;-63
2022/05/24 15:24:55;;;;;;;7.60;5.30;;;;;;;;;;4874048;29;20044;-60
2022/05/24 15:27:22;;;;;;;14.65;5.90;;;;;;;;;;4868669;29;20526;-60
2022/05/24 15:29:48;;;;;;;13.20;6.00;;;;;;;;;;4865765;29;20032;-60
2022/05/24 15:32:15;;;;;;;14.07;5.32;;;;;;;;;;4861857;29;20124;-61
2022/05/24 15:34:41;;;;;;;11.70;5.63;;;;;;;;;;4863989;29;20045;-59
2022/05/24 15:37:08;;;;;;;9.57;5.57;;;;;;;;;;4859094;29;20033;-59
2022/05/24 15:39:34;;;;;;;9.85;6.15;;;;;;;;;;4863904;29;20036;-62
2022/05/24 15:42:00;;;;;;;8.93;5.82;;;;;;;;;;4861334;29;20044;-59
2022/05/24 15:44:27;;;;;;;10.10;5.78;;;;;;;;;;4858582;29;20033;-62
2022/05/24 15:46:56;;;;;;;12.10;5.78;;;;;;;;;;4858251;29;20174;-60
2022/05/24 15:49:23;;;;;;;36.67;6.28;;;;;;;;;;4858935;29;20053;-58
2022/05/24 15:51:49;;;;;;;11.25;6.10;;;;;;;;;;4858465;29;20041;-59
2022/05/24 15:54:15;;;;;;;17.52;6.65;;;;;;;;;;4864881;29;20443;-60
2022/05/24 15:56:41;;;;;;;14.70;7.60;;;;;;;;;;4869667;29;20033;-60
2022/05/24 15:59:09;;;;;;;14.32;8.45;;;;;;;;;;4859241;29;20071;-60
2022/05/24 16:01:35;;;;;;;15.55;9.05;;;;;;;;;;4866100;29;20382;-61
2022/05/24 16:04:02;;;;;;;17.17;9.43;;;;;;;;;;4867040;29;20041;-60
2022/05/24 16:11:50;;;;;;;14.48;7.85;;;;;;;;;;4858311;29;20045;-60
2022/05/24 16:14:39;;;;;;;13.48;6.47;;;;;;;;;;4868185;29;20128;-59
2022/05/24 16:17:06;;;;;;;11.13;5.28;;;;;;;;;;4792479;29;20396;-59
2022/05/24 16:19:32;;;;;;;10.35;4.80;;;;;;;;;;4798668;29;20043;-59
2022/05/24 16:21:59;;;;;;;10.50;5.35;;;;;;;;;;4788692;29;20042;-60
2022/05/24 16:24:26;;;;;;;10.40;5.90;;;;;;;;;;4801192;29;20039;-60
2022/05/24 16:26:52;;;;;;;8.90;4.05;;;;;;;;;;4790735;29;20038;-59
2022/05/24 16:29:18;;;;;;;8.07;4.50;;;;;;;;;;4784312;29;20051;-60
2022/05/24 16:31:44;;;;;;;9.77;5.53;;;;;;;;;;4782936;30;20214;-61
2022/05/24 16:34:10;;;;;;;6.93;4.95;;;;;;;;;;4787458;29;20164;-60
2022/05/24 16:36:37;;;;;;;8.02;4.50;;;;;;;;;;4785994;29;20532;-61
2022/05/24 16:39:04;;;;;;;14.25;5.07;;;;;;;;;;4795074;29;20088;-62
2022/05/24 16:41:30;;;;;;;8.35;4.50;;;;;;;;;;4792126;29;20581;-61
2022/05/24 16:43:57;;;;;;;10.07;4.55;;;;;;;;;;4795486;29;20034;-60
2022/05/24 16:46:25;;;;;;;11.48;4.63;;;;;;;;;;4796466;29;20035;-60
2022/05/24 16:48:51;;;;;;;9.63;4.50;;;;;;;;;;4794809;29;20099;-61
2022/05/24 16:51:17;;;;;;;6.82;4.05;;;;;;;;;;4796501;29;20031;-59
2022/05/24 16:53:47;;;;;;;9.52;4.38;;;;;;;;;;4820671;29;20049;-59
2022/05/24 16:58:58;;;;;;;6.57;4.05;;;;;;;;;;4870959;29;20138;-59
2022/05/24 17:01:24;;;;;;;8.27;4.13;;;;;;;;;;4848644;29;20043;-59
2022/05/24 17:03:50;;;;;;;7.95;4.05;;;;;;;;;;4865031;29;20033;-60
2022/05/24 17:06:17;;;;;;;9.70;4.00;;;;;;;;;;4868040;29;20032;-60
2022/05/24 17:08:44;;;;;;;10.90;4.38;;;;;;;;;;4876463;29;20508;-59
2022/05/24 17:11:10;;;;;;;8.35;4.43;;;;;;;;;;4868045;29;20089;-59
2022/05/24 17:13:37;;;;;;;8.73;4.13;;;;;;;;;;4870579;29;20033;-61
2022/05/24 17:16:03;;;;;;;8.85;4.38;;;;;;;;;;4865818;29;20074;-59
2022/05/24 17:18:29;;;;;;;12.05;4.65;;;;;;;;;;4866291;29;20089;-61
2022/05/24 17:20:55;;;;;;;12.05;4.60;;;;;;;;;;4861185;29;20065;-58
2022/05/24 17:23:21;;;;;;;9.93;4.35;;;;;;;;;;4865238;29;20034;-59
2022/05/24 17:25:48;;;;;;;8.68;4.72;;;;;;;;;;4879634;29;20029;-59
2022/05/24 17:28:14;;;;;;;8.63;4.15;;;;;;;;;;4879986;29;20021;-59
2022/05/24 17:30:41;;;;;;;7.95;4.30;;;;;;;;;;4879813;29;20491;-61
2022/05/24 17:33:26;;;;;;;9.02;4.53;;;;;;;;;;4879547;29;20052;-60
2022/05/24 17:35:53;;;;;;;8.55;4.30;;;;;;;;;;4879005;29;20071;-59
2022/05/24 17:38:19;;;;;;;7.05;4.13;;;;;;;;;;4878798;29;20477;-60
2022/05/24 17:40:47;;;;;;;8.40;4.03;;;;;;;;;;4879111;29;20040;-59
2022/05/24 17:43:14;;;;;;;8.25;4.35;;;;;;;;;;4879250;29;20029;-61
2022/05/24 17:45:40;;;;;;;7.95;4.60;;;;;;;;;;4879205;29;20029;-59
2022/05/24 17:48:11;;;;;;;8.23;3.85;;;;;;;;;;4878566;29;20508;-61
2022/05/24 17:50:37;;;;;;;9.18;4.70;;;;;;;;;;4878506;29;20033;-61
2022/05/24 17:53:05;;;;;;;8.40;4.20;;;;;;;;;;4877271;29;20512;-60
2022/05/24 17:55:32;;;;;;;15.65;4.20;;;;;;;;;;4879412;29;20037;-61
2022/05/24 17:57:59;;;;;;;7.75;4.32;;;;;;;;;;4879485;29;20025;-60
2022/05/24 18:00:25;;;;;;;6.20;3.95;;;;;;;;;;4878923;29;20032;-59
2022/05/24 18:02:51;;;;;;;9.48;4.43;;;;;;;;;;4880333;29;20021;-60
2022/05/24 18:05:18;;;;;;;6.85;4.20;;;;;;;;;;4880051;29;20112;-60
2022/05/24 18:07:44;;;;;;;7.95;4.22;;;;;;;;;;4878672;29;20033;-62
2022/05/24 18:10:11;;;;;;;12.63;5.20;;;;;;;;;;4878837;29;20557;-61
2022/05/24 18:12:38;;;;;;;7.38;4.30;;;;;;;;;;4877980;29;20418;-60
2022/05/24 18:15:05;;;;;;;8.95;4.22;;;;;;;;;;4870639;29;20509;-61
2022/05/24 18:17:32;;;;;;;11.68;4.43;;;;;;;;;;4865181;29;20102;-61
2022/05/24 18:19:58;;;;;;;7.57;4.70;;;;;;;;;;4875114;29;20045;-61
2022/05/24 18:22:26;;;;;;;7.38;4.40;;;;;;;;;;4858009;29;20033;-60
2022/05/24 18:25:01;;;;;;;12.20;4.35;;;;;;;;;;4859412;29;20033;-63
2022/05/24 18:33:08;;;;;;;12.48;5.00;;;;;;;;;;4868310;29;20036;-61
2022/05/24 18:35:40;;;;;;;7.85;4.47;;;;;;;;;;4872072;29;20051;-62
2022/05/24 18:38:07;;;;;;;9.40;4.35;;;;;;;;;;4861523;29;20026;-60
2022/05/24 18:40:34;;;;;;;8.80;4.63;;;;;;;;;;4872010;29;20025;-60
2022/05/24 18:43:00;;;;;;;8.32;4.47;;;;;;;;;;4867335;29;20096;-61
2022/05/24 18:45:26;;;;;;;6.35;4.43;;;;;;;;;;4863786;29;20029;-60
2022/05/24 18:47:52;;;;;;;8.30;4.43;;;;;;;;;;4858566;29;20081;-64
2022/05/24 18:50:18;;;;;;;9.38;4.72;;;;;;;;;;4872225;29;20518;-62
2022/05/24 18:52:44;;;;;;;7.90;4.43;;;;;;;;;;4858843;29;20545;-62
2022/05/24 18:55:11;;;;;;;9.73;4.78;;;;;;;;;;4869328;29;20049;-61
2022/05/24 18:57:37;;;;;;;7.93;4.55;;;;;;;;;;4863569;29;20061;-62
2022/05/24 19:00:04;;;;;;;9.00;5.20;;;;;;;;;;4854906;29;20578;-60
2022/05/24 19:02:30;;;;;;;11.07;5.03;;;;;;;;;;4849126;29;20033;-61
2022/05/24 19:04:56;;;;;;;9.57;4.78;;;;;;;;;;4867062;29;20032;-62
2022/05/24 19:07:22;;;;;;;9.65;4.60;;;;;;;;;;4850522;29;20787;-58
2022/05/24 19:09:50;;;;;;;8.57;5.07;;;;;;;;;;4867076;29;20750;-60
2022/05/24 19:12:17;;;;;;;10.68;4.50;;;;;;;;;;4863127;29;20029;-61
2022/05/24 19:14:44;;;;;;;9.85;4.28;;;;;;;;;;4872765;29;20051;-60
2022/05/24 19:17:11;;;;;;;9.98;4.68;;;;;;;;;;4873882;29;20490;-65
2022/05/24 19:19:38;;;;;;;11.10;4.68;;;;;;;;;;4877892;29;20085;-62
2022/05/24 19:22:05;;;;;;;7.82;4.82;;;;;;;;;;4877881;29;20031;-61
2022/05/24 19:24:31;;;;;;;9.52;4.13;;;;;;;;;;4861198;29;20493;-61
2022/05/24 19:26:59;;;;;;;11.15;4.30;;;;;;;;;;4877658;29;20470;-61
2022/05/24 19:29:26;;;;;;;6.35;4.10;;;;;;;;;;4878053;29;20120;-61
2022/05/24 19:31:52;;;;;;;9.88;4.03;;;;;;;;;;4877627;29;20029;-60
2022/05/24 19:34:19;;;;;;;8.15;4.20;;;;;;;;;;4877885;29;20320;-61
2022/05/24 19:36:45;;;;;;;8.15;4.05;;;;;;;;;;4877843;29;20025;-59
2022/05/24 19:41:56;;;;;;;11.93;4.45;;;;;;;;;;4869231;29;21277;-60
2022/05/24 19:44:22;;;;;;;7.13;3.95;;;;;;;;;;4877735;29;20036;-61
2022/05/24 19:46:49;;;;;;;5.68;4.00;;;;;;;;;;4877184;29;20037;-61
2022/05/24 19:49:16;;;;;;;9.80;4.07;;;;;;;;;;4876591;29;20071;-60
2022/05/24 19:51:47;;;;;;;10.57;4.43;;;;;;;;;;4874632;29;20057;-60
2022/05/24 19:54:18;;;;;;;7.93;4.20;;;;;;;;;;4867726;29;20462;-60
2022/05/24 19:56:45;;;;;;;10.13;4.17;;;;;;;;;;4860512;29;20409;-61
2022/05/24 19:59:11;;;;;;;8.48;3.85;;;;;;;;;;4859831;29;20048;-60
2022/05/24 20:01:37;;;;;;;8.95;4.32;;;;;;;;;;4866465;29;20045;-60
2022/05/24 20:04:03;;;;;;;6.45;4.25;;;;;;;;;;4866622;29;20036;-60
2022/05/24 20:06:29;;;;;;;7.18;4.00;;;;;;;;;;4866402;29;20021;-59
2022/05/24 20:08:55;;;;;;;9.80;4.28;;;;;;;;;;4869065;29;20108;-59
2022/05/24 20:11:21;;;;;;;5.63;4.00;;;;;;;;;;4868987;29;20057;-59
2022/05/24 20:13:47;;;;;;;6.47;4.00;;;;;;;;;;4868092;29;20030;-59
2022/05/24 20:16:13;;;;;;;12.43;4.50;;;;;;;;;;4867181;29;20044;-60
2022/05/24 20:18:40;;;;;;;10.27;3.97;;;;;;;;;;4867396;29;20034;-60
2022/05/24 20:21:06;;;;;;;10.43;3.75;;;;;;;;;;4869771;29;20028;-60
2022/05/24 20:23:32;;;;;;;8.45;3.88;;;;;;;;;;4867377;29;20052;-59
2022/05/24 20:25:58;;;;;;;8.05;3.72;;;;;;;;;;4868780;29;20025;-60
2022/05/24 20:28:25;;;;;;;7.80;4.05;;;;;;;;;;4865521;29;20044;-59
2022/05/24 20:30:51;;;;;;;6.00;4.15;;;;;;;;;;4867309;29;20482;-58